Time;durP1;ratioP1;P1;durP2;ratioP2;P2;SDS_P1;SDS_P2;PMS_P1;PMS_P2;Temp;Humidity;BMP_temperature;BMP_pressure;BME280_temperature;BME280_humidity;BME280_pressure;Samples;Min_cycle;Max_cycle;Signal;HPM_P1;HPM_P2
2022/12/27 00:00:51;;;;;;;;;;;6.60;99.90;;;;;;5119078;28;19995;-61
2022/12/27 00:03:17;;;;;;;;;;;6.80;99.90;;;;;;5119375;28;19943;-60
2022/12/27 00:05:43;;;;;;;;;;;7.00;99.90;;;;;;5119044;28;19908;-61
2022/12/27 00:08:09;;;;;;;;;;;7.10;99.90;;;;;;5119923;28;19955;-61
2022/12/27 00:10:35;;;;;;;;;;;7.20;99.90;;;;;;5119213;28;19933;-61
2022/12/27 00:13:01;;;;;;;;;;;7.20;99.90;;;;;;5119260;28;20076;-61
2022/12/27 00:15:27;;;;;;;;;;;7.20;99.90;;;;;;5119301;28;19965;-61
2022/12/27 00:17:52;;;;;;;;;;;7.30;99.90;;;;;;5119589;28;20340;-61
2022/12/27 00:20:18;;;;;;;;;;;7.30;99.90;;;;;;5119299;28;19907;-61
2022/12/27 00:22:43;;;;;;;;;;;7.50;99.90;;;;;;5118997;28;19914;-61
2022/12/27 00:25:09;;;;;;;;;;;7.50;99.90;;;;;;5119232;28;19983;-62
2022/12/27 00:27:35;;;;;;;;;;;7.60;99.90;;;;;;5118917;28;20003;-61
2022/12/27 00:30:01;;;;;;;;;;;7.70;99.90;;;;;;5119134;28;19943;-61
2022/12/27 00:32:26;;;;;;;;;;;7.60;99.90;;;;;;5118826;28;19915;-61
2022/12/27 00:34:52;;;;;;;;;;;7.80;99.90;;;;;;5118990;28;19947;-61
2022/12/27 00:37:18;;;;;;;;;;;7.90;99.90;;;;;;5118767;28;19939;-61
2022/12/27 00:39:43;;;;;;;;;;;7.90;99.90;;;;;;5119000;28;19908;-61
2022/12/27 00:42:09;;;;;;;;;;;8.00;99.90;;;;;;5118649;28;19912;-61
2022/12/27 00:44:35;;;;;;;;;;;8.00;99.90;;;;;;5118195;28;19954;-61
2022/12/27 00:47:01;;;;;;;;;;;8.00;99.90;;;;;;5118657;28;19908;-60
2022/12/27 00:49:26;;;;;;;;;;;8.00;99.90;;;;;;5118779;28;19950;-61
2022/12/27 00:51:52;;;;;;;;;;;8.00;99.90;;;;;;5118848;28;19947;-61
2022/12/27 00:54:17;;;;;;;;;;;8.10;99.90;;;;;;5118603;28;19912;-61
2022/12/27 00:56:43;;;;;;;;;;;8.10;99.90;;;;;;5118795;28;19908;-60
2022/12/27 00:59:09;;;;;;;;;;;8.10;99.90;;;;;;5118822;28;20370;-61
2022/12/27 01:01:35;;;;;;;;;;;8.10;99.90;;;;;;5118246;28;19927;-61
2022/12/27 01:04:01;;;;;;;;;;;8.10;99.90;;;;;;5118422;28;20289;-61
2022/12/27 01:06:28;;;;;;;;;;;8.10;99.90;;;;;;5118428;28;19994;-62
2022/12/27 01:08:54;;;;;;;;;;;8.00;99.90;;;;;;5118344;28;19955;-61
2022/12/27 01:11:20;;;;;;;;;;;8.10;99.90;;;;;;5118624;28;19911;-61
2022/12/27 01:13:46;;;;;;;;;;;8.00;99.90;;;;;;5118230;28;19962;-61
2022/12/27 01:16:16;;;;;;;;;;;8.00;99.90;;;;;;5118431;28;19908;-61
2022/12/27 01:18:42;;;;;;;;;;;7.90;99.90;;;;;;5118275;28;19908;-61
2022/12/27 01:21:09;;;;;;;;;;;7.90;99.90;;;;;;5118301;28;20430;-61
2022/12/27 01:23:35;;;;;;;;;;;7.90;99.90;;;;;;5118440;28;20298;-61
2022/12/27 01:26:01;;;;;;;;;;;7.80;99.90;;;;;;5118464;28;19908;-62
2022/12/27 01:28:27;;;;;;;;;;;7.70;99.90;;;;;;5118175;28;20008;-62
2022/12/27 01:30:53;;;;;;;;;;;7.60;99.90;;;;;;5118063;28;19912;-61
2022/12/27 01:33:18;;;;;;;;;;;7.60;99.90;;;;;;5118443;28;19998;-61
2022/12/27 01:35:44;;;;;;;;;;;7.50;99.90;;;;;;5118531;28;19912;-61
2022/12/27 01:38:10;;;;;;;;;;;7.50;99.90;;;;;;5118060;28;19908;-61
2022/12/27 01:40:36;;;;;;;;;;;7.50;99.90;;;;;;5118256;28;19908;-61
2022/12/27 01:43:02;;;;;;;;;;;7.40;99.90;;;;;;5118049;28;19935;-61
2022/12/27 01:45:29;;;;;;;;;;;7.40;99.90;;;;;;5118215;28;20017;-61
2022/12/27 01:47:54;;;;;;;;;;;7.40;99.90;;;;;;5118048;28;19911;-61
2022/12/27 01:50:30;;;;;;;;;;;7.40;99.90;;;;;;5118147;28;19914;-61
2022/12/27 01:53:01;;;;;;;;;;;7.40;99.90;;;;;;5118084;28;19912;-61
2022/12/27 01:55:26;;;;;;;;;;;7.20;99.90;;;;;;5119505;28;20393;-61
2022/12/27 01:57:55;;;;;;;;;;;7.30;99.90;;;;;;5121932;28;19955;-61
2022/12/27 02:00:21;;;;;;;;;;;7.30;99.90;;;;;;5122002;28;19947;-61
2022/12/27 02:02:47;;;;;;;;;;;7.30;99.90;;;;;;5121408;28;19927;-61
2022/12/27 02:05:14;;;;;;;;;;;7.30;99.90;;;;;;5122093;28;19915;-61
2022/12/27 02:07:44;;;;;;;;;;;7.30;99.90;;;;;;5121641;28;19912;-61
2022/12/27 02:10:10;;;;;;;;;;;7.30;99.90;;;;;;5121805;28;19908;-61
2022/12/27 02:12:36;;;;;;;;;;;7.30;99.90;;;;;;5121259;28;19914;-61
2022/12/27 02:15:03;;;;;;;;;;;7.30;99.90;;;;;;5121486;28;19962;-61
2022/12/27 02:17:31;;;;;;;;;;;7.40;99.90;;;;;;5121223;28;20060;-61
2022/12/27 02:19:57;;;;;;;;;;;;;;;;;;5121833;28;19976;-61
2022/12/27 02:22:28;;;;;;;;;;;7.40;99.90;;;;;;5121383;28;19953;-61
2022/12/27 02:25:13;;;;;;;;;;;7.40;99.90;;;;;;5121275;28;19908;-61
2022/12/27 02:27:45;;;;;;;;;;;7.40;99.90;;;;;;5121479;28;19908;-61
2022/12/27 02:30:12;;;;;;;;;;;7.50;99.90;;;;;;5121216;28;19912;-61
2022/12/27 02:32:42;;;;;;;;;;;7.60;99.90;;;;;;5121435;28;19915;-61
2022/12/27 02:35:12;;;;;;;;;;;7.60;99.90;;;;;;5121049;28;20343;-61
2022/12/27 02:37:44;;;;;;;;;;;7.60;99.90;;;;;;5121222;28;19908;-61
2022/12/27 02:54:07;;;;;;;;;;;8.00;99.90;;;;;;5120779;28;19923;-61
2022/12/27 02:59:36;;;;;;;;;;;8.10;99.90;;;;;;5120883;28;19914;-62
2022/12/27 03:05:16;;;;;;;;;;;8.00;99.90;;;;;;5120530;28;19915;-61
2022/12/27 03:07:47;;;;;;;;;;;7.90;99.90;;;;;;5120027;28;19961;-62
2022/12/27 03:16:05;;;;;;;;;;;7.80;99.90;;;;;;5120325;28;19933;-61
2022/12/27 03:18:36;;;;;;;;;;;7.90;99.90;;;;;;5119695;28;19929;-61
2022/12/27 03:26:36;;;;;;;;;;;8.00;99.90;;;;;;5120503;28;19976;-61
2022/12/27 03:34:38;;;;;;;;;;;7.70;99.90;;;;;;5119421;28;19934;-61
2022/12/27 03:40:04;;;;;;;;;;;7.60;99.90;;;;;;5120116;28;19914;-61
2022/12/27 03:45:16;;;;;;;;;;;7.50;99.90;;;;;;5119566;28;19931;-61
2022/12/27 03:47:41;;;;;;;;;;;7.50;99.90;;;;;;5119875;28;19998;-61
2022/12/27 03:50:09;;;;;;;;;;;7.50;99.90;;;;;;5119779;28;20431;-62
2022/12/27 03:52:42;;;;;;;;;;;7.50;99.90;;;;;;5119677;28;19915;-61
2022/12/27 03:55:09;;;;;;;;;;;7.60;99.90;;;;;;5119440;28;19942;-61
2022/12/27 03:57:35;;;;;;;;;;;7.60;99.90;;;;;;5119692;28;19951;-61
2022/12/27 04:00:00;;;;;;;;;;;7.60;99.90;;;;;;5119415;28;19908;-61
2022/12/27 04:02:26;;;;;;;;;;;7.60;99.90;;;;;;5119276;28;19927;-61
2022/12/27 04:04:51;;;;;;;;;;;7.60;99.90;;;;;;5119527;28;19931;-61
2022/12/27 04:07:17;;;;;;;;;;;7.70;99.90;;;;;;5119442;28;20412;-61
2022/12/27 04:37:06;;;;;;;;;;;8.20;99.90;;;;;;5118956;28;19946;-61
2022/12/27 04:39:31;;;;;;;;;;;8.20;99.90;;;;;;5118969;28;19908;-61
2022/12/27 04:55:48;;;;;;;;;;;8.70;99.90;;;;;;5119032;28;19915;-62
2022/12/27 04:58:13;;;;;;;;;;;8.70;99.90;;;;;;5118905;28;20324;-61
2022/12/27 05:03:23;;;;;;;;;;;8.80;99.90;;;;;;5118316;28;19919;-61
2022/12/27 05:05:50;;;;;;;;;;;8.80;99.90;;;;;;5118654;28;20286;-61
2022/12/27 05:14:01;;;;;;;;;;;8.80;99.90;;;;;;5118273;28;19919;-62
2022/12/27 05:16:26;;;;;;;;;;;8.80;99.90;;;;;;5118262;28;20311;-62
2022/12/27 05:18:52;;;;;;;;;;;8.90;99.90;;;;;;5118281;28;19967;-61
2022/12/27 05:21:18;;;;;;;;;;;8.80;99.90;;;;;;5118501;28;19962;-61
2022/12/27 05:26:28;;;;;;;;;;;8.70;99.90;;;;;;5118143;28;20397;-61
2022/12/27 05:28:55;;;;;;;;;;;8.70;99.90;;;;;;5118928;28;19915;-61
2022/12/27 05:31:21;;;;;;;;;;;8.70;99.90;;;;;;5122567;28;19961;-61
2022/12/27 05:33:47;;;;;;;;;;;8.70;99.90;;;;;;5122456;28;19961;-61
2022/12/27 05:36:13;;;;;;;;;;;8.60;99.90;;;;;;5122421;28;19908;-61
2022/12/27 05:38:38;;;;;;;;;;;8.60;99.90;;;;;;5122440;28;19907;-61
2022/12/27 05:41:04;;;;;;;;;;;8.70;99.90;;;;;;5122334;28;19998;-61
2022/12/27 05:43:30;;;;;;;;;;;8.70;99.90;;;;;;5122361;28;20419;-62
2022/12/27 05:46:01;;;;;;;;;;;8.70;99.90;;;;;;5122016;28;19908;-61
2022/12/27 05:48:27;;;;;;;;;;;8.70;99.90;;;;;;5122295;28;19957;-61
2022/12/27 05:50:52;;;;;;;;;;;8.70;99.90;;;;;;5121914;28;20358;-61
2022/12/27 05:53:18;;;;;;;;;;;8.70;99.90;;;;;;5121228;28;19911;-61
2022/12/27 05:55:43;;;;;;;;;;;8.70;99.90;;;;;;5121712;28;19994;-62
2022/12/27 05:58:09;;;;;;;;;;;8.70;99.90;;;;;;5121575;28;19914;-61
2022/12/27 06:00:35;;;;;;;;;;;8.80;99.90;;;;;;5121680;28;19954;-60
2022/12/27 06:03:01;;;;;;;;;;;8.80;99.90;;;;;;5121803;28;20381;-61
2022/12/27 06:05:26;;;;;;;;;;;8.80;99.90;;;;;;5121799;28;19907;-61
2022/12/27 06:07:52;;;;;;;;;;;8.70;99.90;;;;;;5121538;28;19914;-62
2022/12/27 06:10:20;;;;;;;;;;;8.70;99.90;;;;;;5120718;28;20352;-61
2022/12/27 06:12:45;;;;;;;;;;;8.70;99.90;;;;;;5121572;28;19908;-61
2022/12/27 06:15:11;;;;;;;;;;;8.60;99.90;;;;;;5121618;28;19908;-61
2022/12/27 06:17:36;;;;;;;;;;;8.60;99.90;;;;;;5121485;28;19908;-61
2022/12/27 06:20:02;;;;;;;;;;;8.50;99.90;;;;;;5121426;28;19929;-61
2022/12/27 06:22:28;;;;;;;;;;;8.30;99.90;;;;;;5121449;28;19908;-61
2022/12/27 06:24:53;;;;;;;;;;;8.20;99.90;;;;;;5121183;28;19915;-61
2022/12/27 06:27:19;;;;;;;;;;;8.00;99.90;;;;;;5121586;28;20406;-61
2022/12/27 06:29:44;;;;;;;;;;;7.90;99.90;;;;;;5121131;28;19908;-61
2022/12/27 06:32:10;;;;;;;;;;;7.80;99.90;;;;;;5121473;28;19916;-61
2022/12/27 06:34:36;;;;;;;;;;;7.70;99.90;;;;;;5121085;28;19947;-61
2022/12/27 06:37:01;;;;;;;;;;;7.60;99.90;;;;;;5121110;28;19908;-62
2022/12/27 06:39:27;;;;;;;;;;;7.60;99.90;;;;;;5120965;28;19957;-61
2022/12/27 06:41:54;;;;;;;;;;;7.80;99.90;;;;;;5120041;28;19963;-61
2022/12/27 06:44:20;;;;;;;;;;;7.90;99.90;;;;;;5120881;28;20084;-61
2022/12/27 06:46:46;;;;;;;;;;;8.10;99.90;;;;;;5121034;28;19908;-61
2022/12/27 06:49:12;;;;;;;;;;;8.30;99.90;;;;;;5120811;28;20239;-61
2022/12/27 06:51:37;;;;;;;;;;;8.60;99.90;;;;;;5120670;28;20367;-62
2022/12/27 06:54:03;;;;;;;;;;;8.70;99.90;;;;;;5121036;28;19912;-61
2022/12/27 06:56:28;;;;;;;;;;;8.80;99.90;;;;;;5120591;28;19943;-61
2022/12/27 06:58:54;;;;;;;;;;;8.80;99.90;;;;;;5120692;28;19907;-61
2022/12/27 07:01:24;;;;;;;;;;;8.90;99.90;;;;;;5120699;28;19954;-61
2022/12/27 07:03:50;;;;;;;;;;;7.40;99.90;;;;;;5120856;28;19918;-62
2022/12/27 07:06:16;;;;;;;;;;;8.80;99.90;;;;;;5120650;28;19998;-61
2022/12/27 07:08:42;;;;;;;;;;;8.90;99.90;;;;;;5120374;28;20393;-61
2022/12/27 07:11:09;;;;;;;;;;;8.90;99.90;;;;;;5120437;28;19907;-61
2022/12/27 07:13:39;;;;;;;;;;;8.90;99.90;;;;;;5120438;28;19919;-61
2022/12/27 07:16:05;;;;;;;;;;;8.90;99.90;;;;;;5120215;28;19908;-61
2022/12/27 07:18:31;;;;;;;;;;;8.90;99.90;;;;;;5120435;28;19908;-62
2022/12/27 07:20:56;;;;;;;;;;;8.80;99.90;;;;;;5120110;28;19908;-62
2022/12/27 07:23:22;;;;;;;;;;;8.80;99.90;;;;;;5120408;28;19911;-61
2022/12/27 07:25:48;;;;;;;;;;;8.80;99.90;;;;;;5119965;28;19912;-61
2022/12/27 07:28:13;;;;;;;;;;;8.70;99.90;;;;;;5120099;28;19915;-62
2022/12/27 07:30:40;;;;;;;;;;;8.60;99.90;;;;;;5120324;28;20000;-61
2022/12/27 07:33:06;;;;;;;;;;;8.50;99.90;;;;;;5119843;28;19955;-61
2022/12/27 07:35:32;;;;;;;;;;;8.40;99.90;;;;;;5119743;28;19908;-61
2022/12/27 07:37:57;;;;;;;;;;;8.30;99.90;;;;;;5119756;28;19931;-62
2022/12/27 07:40:23;;;;;;;;;;;8.20;99.90;;;;;;5120099;28;19908;-61
2022/12/27 07:42:48;;;;;;;;;;;8.00;99.90;;;;;;5120089;28;19923;-62
2022/12/27 07:45:14;;;;;;;;;;;8.00;99.90;;;;;;5119811;28;19953;-61
2022/12/27 07:47:40;;;;;;;;;;;8.00;99.90;;;;;;5119542;28;19943;-61
2022/12/27 07:50:06;;;;;;;;;;;7.80;99.90;;;;;;5119668;28;19908;-61
2022/12/27 07:52:31;;;;;;;;;;;7.80;99.90;;;;;;5118555;28;19908;-61
2022/12/27 07:54:57;;;;;;;;;;;7.70;99.90;;;;;;5119389;28;19911;-62
2022/12/27 07:57:22;;;;;;;;;;;7.60;99.90;;;;;;5119523;28;19915;-62
2022/12/27 07:59:48;;;;;;;;;;;7.70;99.90;;;;;;5119346;28;19916;-61
2022/12/27 08:02:15;;;;;;;;;;;7.60;99.90;;;;;;5119198;28;19927;-61
2022/12/27 08:04:41;;;;;;;;;;;7.70;99.90;;;;;;5119447;28;19919;-61
2022/12/27 08:07:10;;;;;;;;;;;7.60;99.90;;;;;;5119637;28;19908;-61
2022/12/27 08:09:37;;;;;;;;;;;7.70;99.90;;;;;;5119125;28;19908;-61
2022/12/27 08:12:03;;;;;;;;;;;7.70;99.90;;;;;;5119374;28;19907;-62
2022/12/27 08:14:28;;;;;;;;;;;7.70;99.90;;;;;;5118952;28;19918;-62
2022/12/27 08:16:57;;;;;;;;;;;7.70;99.90;;;;;;5118548;28;19908;-62
2022/12/27 08:19:23;;;;;;;;;;;7.70;99.90;;;;;;5100626;28;19915;-61
2022/12/27 08:21:48;;;;;;;;;;;7.70;99.90;;;;;;5118675;28;19908;-61
2022/12/27 08:24:14;;;;;;;;;;;7.80;99.90;;;;;;5118801;28;19908;-62
2022/12/27 08:26:40;;;;;;;;;;;7.80;99.90;;;;;;5119244;28;20428;-61
2022/12/27 08:29:05;;;;;;;;;;;7.90;99.90;;;;;;5118663;28;19907;-61
2022/12/27 08:31:31;;;;;;;;;;;8.10;99.90;;;;;;5119210;28;20324;-62
2022/12/27 08:33:57;;;;;;;;;;;8.30;99.90;;;;;;5118564;28;20286;-61
2022/12/27 08:36:22;;;;;;;;;;;8.50;99.90;;;;;;5118400;28;19908;-62
2022/12/27 08:38:48;;;;;;;;;;;8.60;99.90;;;;;;5118612;28;19908;-61
2022/12/27 08:41:18;;;;;;;;;;;8.60;99.90;;;;;;5118606;28;20298;-61
2022/12/27 08:43:44;;;;;;;;;;;8.70;99.90;;;;;;5118532;28;19908;-61
2022/12/27 08:46:09;;;;;;;;;;;8.80;99.90;;;;;;5118843;28;20434;-61
2022/12/27 08:48:36;;;;;;;;;;;9.00;99.90;;;;;;5118449;28;19915;-61
2022/12/27 08:51:03;;;;;;;;;;;9.00;99.90;;;;;;5119152;28;19961;-61
2022/12/27 08:53:29;;;;;;;;;;;9.30;99.90;;;;;;5118246;28;20370;-61
2022/12/27 08:55:55;;;;;;;;;;;9.80;99.90;;;;;;5118838;28;19912;-62
2022/12/27 08:58:22;;;;;;;;;;;9.90;99.90;;;;;;5118892;28;20429;-62
2022/12/27 09:00:47;;;;;;;;;;;10.00;99.90;;;;;;5117903;28;19928;-62
2022/12/27 09:03:14;;;;;;;;;;;10.80;99.90;;;;;;5118177;28;19908;-61
2022/12/27 09:05:39;;;;;;;;;;;11.00;99.90;;;;;;5118360;28;19920;-62
2022/12/27 09:08:05;;;;;;;;;;;11.10;99.90;;;;;;5118226;28;20003;-62
2022/12/27 09:10:30;;;;;;;;;;;11.40;99.90;;;;;;5118625;28;20242;-62
2022/12/27 09:12:56;;;;;;;;;;;11.70;99.90;;;;;;5118276;28;19922;-61
2022/12/27 09:15:22;;;;;;;;;;;11.90;99.90;;;;;;5118443;28;19908;-61
2022/12/27 09:17:48;;;;;;;;;;;12.20;99.90;;;;;;5118164;28;20358;-61
2022/12/27 09:20:13;;;;;;;;;;;12.50;99.90;;;;;;5118336;28;19958;-61
2022/12/27 09:22:39;;;;;;;;;;;12.60;99.90;;;;;;5118303;28;20380;-61
2022/12/27 09:25:05;;;;;;;;;;;12.70;99.90;;;;;;5118289;28;19908;-61
2022/12/27 09:27:30;;;;;;;;;;;12.90;99.90;;;;;;5117959;28;19911;-61
2022/12/27 09:29:56;;;;;;;;;;;13.30;99.90;;;;;;5118521;28;19938;-60
2022/12/27 09:32:26;;;;;;;;;;;13.70;99.90;;;;;;5117990;28;19908;-61
2022/12/27 09:34:52;;;;;;;;;;;14.00;99.90;;;;;;5118012;28;19920;-62
2022/12/27 09:37:18;;;;;;;;;;;14.40;99.90;;;;;;5118228;28;19996;-61
2022/12/27 09:39:43;;;;;;;;;;;14.20;99.90;;;;;;5118253;28;19908;-61
2022/12/27 09:42:15;;;;;;;;;;;14.00;99.90;;;;;;5118215;28;19916;-61
2022/12/27 09:44:47;;;;;;;;;;;14.10;99.90;;;;;;5117967;28;19916;-62
2022/12/27 09:47:12;;;;;;;;;;;13.70;99.90;;;;;;5117957;28;19908;-62
2022/12/27 09:49:43;;;;;;;;;;;13.50;99.90;;;;;;5117906;28;20396;-61
2022/12/27 09:52:17;;;;;;;;;;;13.30;99.90;;;;;;5117668;28;20270;-62
2022/12/27 09:54:43;;;;;;;;;;;13.10;99.90;;;;;;5118047;28;19916;-62
2022/12/27 09:57:22;;;;;;;;;;;13.20;99.90;;;;;;5118114;28;20319;-62
2022/12/27 09:59:49;;;;;;;;;;;12.80;99.90;;;;;;5118291;28;19979;-62
2022/12/27 10:02:20;;;;;;;;;;;12.40;99.90;;;;;;5117708;28;19919;-62
2022/12/27 10:04:45;;;;;;;;;;;12.30;99.90;;;;;;5118454;28;19908;-62
2022/12/27 10:07:26;;;;;;;;;;;12.20;99.90;;;;;;5117942;28;19991;-62
2022/12/27 10:10:03;;;;;;;;;;;12.00;99.90;;;;;;5117741;28;19915;-62
2022/12/27 10:12:35;;;;;;;;;;;12.40;99.90;;;;;;5117956;28;20393;-61
2022/12/27 10:15:24;;;;;;;;;;;11.70;99.90;;;;;;5117873;28;20243;-61
2022/12/27 10:17:53;;;;;;;;;;;11.50;99.90;;;;;;5112664;28;19912;-61
2022/12/27 10:20:19;;;;;;;;;;;11.50;99.90;;;;;;5121280;28;19995;-62
2022/12/27 10:22:47;;;;;;;;;;;12.10;99.90;;;;;;5121380;28;19958;-62
2022/12/27 10:25:14;;;;;;;;;;;11.50;99.90;;;;;;5121167;28;19907;-62
2022/12/27 10:27:40;;;;;;;;;;;11.50;99.90;;;;;;5121106;28;19915;-62
2022/12/27 10:30:17;;;;;;;;;;;11.50;99.90;;;;;;5121280;28;19907;-62
2022/12/27 10:32:43;;;;;;;;;;;11.60;99.90;;;;;;5121027;28;19908;-62
2022/12/27 10:35:12;;;;;;;;;;;11.70;99.90;;;;;;5121340;28;19915;-62
2022/12/27 10:37:37;;;;;;;;;;;11.80;99.90;;;;;;5121225;28;19914;-62
2022/12/27 10:40:08;;;;;;;;;;;12.00;99.90;;;;;;5120870;28;20458;-62
2022/12/27 10:42:38;;;;;;;;;;;12.30;99.90;;;;;;5120564;28;19994;-61
2022/12/27 10:45:23;;;;;;;;;;;13.10;99.90;;;;;;5120733;28;19995;-63
2022/12/27 10:47:49;;;;;;;;;;;;;;;;;;5121163;28;20010;-61
2022/12/27 10:50:14;;;;;;;;;;;15.40;99.90;;;;;;5120955;28;19943;-61
2022/12/27 10:52:40;;;;;;;;;;;;;;;;;;5120639;28;20439;-61
2022/12/27 10:55:26;;;;;;;;;;;17.10;99.90;;;;;;5120903;28;19908;-61
2022/12/27 10:57:51;;;;;;;;;;;17.10;99.90;;;;;;5120400;28;19908;-61
2022/12/27 11:00:17;;;;;;;;;;;17.80;99.90;;;;;;5120562;28;19914;-61
2022/12/27 11:02:50;;;;;;;;;;;18.00;99.90;;;;;;5120085;28;19927;-61
2022/12/27 11:05:20;;;;;;;;;;;18.00;99.90;;;;;;5120837;28;19908;-61
2022/12/27 11:07:46;;;;;;;;;;;17.70;99.90;;;;;;5120595;28;19951;-61
2022/12/27 11:10:19;;;;;;;;;;;18.40;99.90;;;;;;5101681;28;20359;-61
2022/12/27 11:13:00;;;;;;;;;;;19.10;99.90;;;;;;5120912;28;20327;-61
2022/12/27 11:15:27;;;;;;;;;;;19.20;99.90;;;;;;5120450;28;19908;-61
2022/12/27 11:17:54;;;;;;;;;;;18.30;99.90;;;;;;5120397;28;19908;-61
2022/12/27 11:20:21;;;;;;;;;;;18.10;99.90;;;;;;5120180;28;19908;-61
2022/12/27 11:22:50;;;;;;;;;;;18.10;99.90;;;;;;5120122;28;19908;-61
2022/12/27 11:25:16;;;;;;;;;;;18.70;99.90;;;;;;5120191;28;19915;-61
2022/12/27 11:27:50;;;;;;;;;;;19.50;99.90;;;;;;5119862;28;19908;-61
2022/12/27 11:30:36;;;;;;;;;;;20.20;99.90;;;;;;5120047;28;19907;-61
2022/12/27 11:33:19;;;;;;;;;;;20.40;99.90;;;;;;5119821;28;19916;-61
2022/12/27 11:35:46;;;;;;;;;;;20.90;99.90;;;;;;5119636;28;19908;-61
2022/12/27 11:38:19;;;;;;;;;;;21.00;99.90;;;;;;5119998;28;19907;-61
2022/12/27 11:40:53;;;;;;;;;;;20.70;99.90;;;;;;5119690;28;20016;-61
2022/12/27 11:43:21;;;;;;;;;;;19.90;99.90;;;;;;5119693;28;19915;-61
2022/12/27 11:45:49;;;;;;;;;;;19.70;99.90;;;;;;5119830;28;19908;-61
2022/12/27 11:48:15;;;;;;;;;;;19.60;99.90;;;;;;5119533;28;19929;-61
2022/12/27 11:50:50;;;;;;;;;;;18.80;99.90;;;;;;5119650;28;20351;-62
2022/12/27 11:53:31;;;;;;;;;;;17.60;99.90;;;;;;5119658;28;19912;-62
2022/12/27 11:55:57;;;;;;;;;;;16.90;99.90;;;;;;5119295;28;19957;-62
2022/12/27 11:58:41;;;;;;;;;;;16.30;99.90;;;;;;5119619;28;19908;-62
2022/12/27 12:01:07;;;;;;;;;;;15.80;99.90;;;;;;5119437;28;19923;-62
2022/12/27 12:03:35;;;;;;;;;;;15.70;99.90;;;;;;5119241;28;19908;-62
2022/12/27 12:06:07;;;;;;;;;;;15.70;99.90;;;;;;5119361;28;19908;-62
2022/12/27 12:08:49;;;;;;;;;;;16.10;99.90;;;;;;5119094;28;19911;-62
2022/12/27 12:11:27;;;;;;;;;;;16.30;99.90;;;;;;5119301;28;19908;-62
2022/12/27 12:14:11;;;;;;;;;;;16.10;99.90;;;;;;5118990;28;19912;-61
2022/12/27 12:16:43;;;;;;;;;;;16.70;99.90;;;;;;5119018;28;19908;-61
2022/12/27 12:19:27;;;;;;;;;;;17.10;99.90;;;;;;5118993;28;19908;-62
2022/12/27 12:21:59;;;;;;;;;;;16.80;99.90;;;;;;5118876;28;19908;-61
2022/12/27 12:24:40;;;;;;;;;;;17.00;99.90;;;;;;5118792;28;19908;-61
2022/12/27 12:27:09;;;;;;;;;;;17.00;99.90;;;;;;5119403;28;19908;-61
2022/12/27 12:29:50;;;;;;;;;;;17.00;99.90;;;;;;5118955;28;20373;-61
2022/12/27 12:32:18;;;;;;;;;;;16.60;99.90;;;;;;5118768;28;19928;-62
2022/12/27 12:34:57;;;;;;;;;;;16.70;99.90;;;;;;5118811;28;19919;-62
2022/12/27 12:37:34;;;;;;;;;;;16.70;99.90;;;;;;5118663;28;19908;-62
2022/12/27 12:40:12;;;;;;;;;;;16.80;99.90;;;;;;5118370;28;19912;-62
2022/12/27 12:42:42;;;;;;;;;;;16.70;99.90;;;;;;5118301;28;19908;-61
2022/12/27 12:45:18;;;;;;;;;;;16.90;99.90;;;;;;5118819;28;20325;-62
2022/12/27 12:47:43;;;;;;;;;;;16.70;99.90;;;;;;5118259;28;19908;-62
2022/12/27 12:50:27;;;;;;;;;;;16.20;99.90;;;;;;5118510;28;19915;-62
2022/12/27 12:52:59;;;;;;;;;;;16.20;99.90;;;;;;5118331;28;19908;-62
2022/12/27 12:55:24;;;;;;;;;;;16.10;99.90;;;;;;5118378;28;20008;-62
2022/12/27 12:57:53;;;;;;;;;;;16.30;99.90;;;;;;5118658;28;19943;-62
2022/12/27 13:00:45;;;;;;;;;;;15.90;99.90;;;;;;5118466;28;19916;-62
2022/12/27 13:03:13;;;;;;;;;;;15.30;99.90;;;;;;5094598;28;19991;-62
2022/12/27 13:05:41;;;;;;;;;;;15.00;99.90;;;;;;5118292;28;19987;-62
2022/12/27 13:08:13;;;;;;;;;;;15.10;99.90;;;;;;5118494;28;19915;-61
2022/12/27 13:10:58;;;;;;;;;;;15.50;99.90;;;;;;5118557;28;19908;-62
2022/12/27 13:13:38;;;;;;;;;;;16.20;99.90;;;;;;5118189;28;19915;-62
2022/12/27 13:16:33;;;;;;;;;;;16.60;99.90;;;;;;5118480;28;19961;-62
2022/12/27 13:19:14;;;;;;;;;;;17.00;99.90;;;;;;5117927;28;19908;-62
2022/12/27 13:21:59;;;;;;;;;;;17.00;99.90;;;;;;5118137;28;20271;-61
2022/12/27 13:24:27;;;;;;;;;;;16.70;99.90;;;;;;5118307;28;19908;-61
2022/12/27 13:27:01;;;;;;;;;;;16.80;99.90;;;;;;5118280;28;20263;-61
2022/12/27 13:29:33;;;;;;;;;;;17.10;99.90;;;;;;5118428;28;19908;-61
2022/12/27 13:32:04;;;;;;;;;;;17.50;99.90;;;;;;5118244;28;19908;-61
2022/12/27 13:34:30;;;;;;;;;;;17.50;99.90;;;;;;5118163;28;19919;-62
2022/12/27 13:36:58;;;;;;;;;;;17.60;99.90;;;;;;5117981;28;19907;-61
2022/12/27 13:39:26;;;;;;;;;;;17.40;99.90;;;;;;5117987;28;19908;-62
2022/12/27 13:41:52;;;;;;;;;;;17.20;99.90;;;;;;5117990;28;20388;-62
2022/12/27 13:44:33;;;;;;;;;;;16.40;99.90;;;;;;5117968;28;19908;-62
2022/12/27 13:47:28;;;;;;;;;;;16.20;99.90;;;;;;5118339;28;19908;-62
2022/12/27 13:49:56;;;;;;;;;;;15.90;99.90;;;;;;5104663;28;19914;-62
2022/12/27 13:52:25;;;;;;;;;;;15.70;99.90;;;;;;5122122;28;19967;-62
2022/12/27 13:55:00;;;;;;;;;;;15.70;99.90;;;;;;5121886;28;20374;-62
2022/12/27 13:57:44;;;;;;;;;;;15.60;99.90;;;;;;5122032;28;20262;-62
2022/12/27 14:00:20;;;;;;;;;;;15.50;99.90;;;;;;5121681;28;19964;-62
2022/12/27 14:02:55;;;;;;;;;;;15.40;99.90;;;;;;5121376;28;19959;-62
2022/12/27 14:05:41;;;;;;;;;;;15.50;99.90;;;;;;5121633;28;19912;-62
2022/12/27 14:08:09;;;;;;;;;;;15.40;99.90;;;;;;5121581;28;19908;-62
2022/12/27 14:10:40;;;;;;;;;;;15.20;99.90;;;;;;5121724;28;19908;-62
2022/12/27 14:13:06;;;;;;;;;;;14.90;99.90;;;;;;5121376;28;19915;-62
2022/12/27 14:15:41;;;;;;;;;;;14.70;99.90;;;;;;5121460;28;19907;-62
2022/12/27 14:18:07;;;;;;;;;;;14.40;99.90;;;;;;5121508;28;19915;-62
2022/12/27 14:20:48;;;;;;;;;;;14.20;99.90;;;;;;5121352;28;19908;-62
2022/12/27 14:23:14;;;;;;;;;;;14.00;99.90;;;;;;5121441;28;19915;-62
2022/12/27 14:26:09;;;;;;;;;;;14.00;99.90;;;;;;5121338;28;19912;-62
2022/12/27 14:28:34;;;;;;;;;;;13.80;99.90;;;;;;5120900;28;19908;-62
2022/12/27 14:31:00;;;;;;;;;;;13.50;99.90;;;;;;5121233;28;19912;-62
2022/12/27 14:33:44;;;;;;;;;;;13.50;99.90;;;;;;5121553;28;20323;-62
2022/12/27 14:36:28;;;;;;;;;;;13.40;99.90;;;;;;5121220;28;19907;-62
2022/12/27 14:38:54;;;;;;;;;;;13.20;99.90;;;;;;5120872;28;19907;-62
2022/12/27 14:41:38;;;;;;;;;;;13.10;99.90;;;;;;5120994;28;20066;-62
2022/12/27 14:44:09;;;;;;;;;;;13.10;99.90;;;;;;5120802;28;19907;-62
2022/12/27 14:46:44;;;;;;;;;;;13.00;99.90;;;;;;5120736;28;19955;-62
2022/12/27 14:49:29;;;;;;;;;;;12.90;99.90;;;;;;5120666;28;19991;-62
2022/12/27 14:52:13;;;;;;;;;;;12.80;99.90;;;;;;5120628;28;19930;-62
2022/12/27 14:54:57;;;;;;;;;;;12.80;99.90;;;;;;5120783;28;19972;-62
2022/12/27 14:57:28;;;;;;;;;;;12.80;99.90;;;;;;5120553;28;20370;-62
2022/12/27 14:59:54;;;;;;;;;;;12.70;99.90;;;;;;5120426;28;19915;-62
2022/12/27 15:02:23;;;;;;;;;;;12.60;99.90;;;;;;5119617;28;19923;-62
2022/12/27 15:05:05;;;;;;;;;;;12.70;99.90;;;;;;5120607;28;20003;-62
2022/12/27 15:07:30;;;;;;;;;;;12.60;99.90;;;;;;5120399;28;19924;-62
2022/12/27 15:10:20;;;;;;;;;;;12.50;99.90;;;;;;5120152;28;19908;-62
2022/12/27 15:12:55;;;;;;;;;;;12.50;99.90;;;;;;5101870;28;20381;-62
2022/12/27 15:15:34;;;;;;;;;;;12.50;99.90;;;;;;5120747;28;20338;-62
2022/12/27 15:18:03;;;;;;;;;;;12.40;99.90;;;;;;5120442;28;19942;-62
2022/12/27 15:20:47;;;;;;;;;;;12.40;99.90;;;;;;5120208;28;19907;-62
2022/12/27 15:23:16;;;;;;;;;;;12.40;99.90;;;;;;5120267;28;19908;-62
2022/12/27 15:26:00;;;;;;;;;;;12.30;99.90;;;;;;5120174;28;19947;-62
2022/12/27 15:28:44;;;;;;;;;;;12.30;99.90;;;;;;5120173;28;20006;-62
2022/12/27 15:31:09;;;;;;;;;;;12.30;99.90;;;;;;5120316;28;20358;-62
2022/12/27 15:33:47;;;;;;;;;;;12.20;99.90;;;;;;5119776;28;19940;-62
2022/12/27 15:36:15;;;;;;;;;;;12.20;99.90;;;;;;5119537;28;19908;-62
2022/12/27 15:38:42;;;;;;;;;;;12.10;99.90;;;;;;5120311;28;20361;-62
2022/12/27 15:41:08;;;;;;;;;;;12.10;99.90;;;;;;5119507;28;20274;-62
2022/12/27 15:43:42;;;;;;;;;;;12.10;99.90;;;;;;5119642;28;20068;-62
2022/12/27 15:46:11;;;;;;;;;;;12.10;99.90;;;;;;5120057;28;19915;-62
2022/12/27 15:48:37;;;;;;;;;;;12.10;99.90;;;;;;5119528;28;20363;-62
2022/12/27 15:51:21;;;;;;;;;;;12.10;99.90;;;;;;5119524;28;20071;-62
2022/12/27 15:53:56;;;;;;;;;;;12.10;99.90;;;;;;5119795;28;19915;-62
2022/12/27 15:56:40;;;;;;;;;;;12.10;99.90;;;;;;5119490;28;20305;-62
2022/12/27 15:59:24;;;;;;;;;;;12.00;99.90;;;;;;5119506;28;19915;-62
2022/12/27 16:02:29;;;;;;;;;;;12.00;99.90;;;;;;5119153;28;19924;-62
2022/12/27 16:05:00;;;;;;;;;;;11.90;99.90;;;;;;5056365;28;19909;-62
2022/12/27 16:07:36;;;;;;;;;;;11.90;99.90;;;;;;5056452;28;19908;-62
2022/12/27 16:10:31;;;;;;;;;;;11.90;99.90;;;;;;5092330;28;19960;-63
2022/12/27 16:12:57;;;;;;;;;;;11.80;99.90;;;;;;5105039;28;19908;-63